sensor_id;sensor_type;location;lat;lon;timestamp;P1;durP1;ratioP1;P2;durP2;ratioP2
18114;SDS011;9184;54.390;18.620;2023-04-01T00:00:30;22.73;;;15.93;;
18114;SDS011;9184;54.390;18.620;2023-04-01T00:01:01;23.07;;;16.30;;
18114;SDS011;9184;54.390;18.620;2023-04-01T00:01:32;23.67;;;14.90;;
18114;SDS011;9184;54.390;18.620;2023-04-01T00:02:03;32.07;;;14.93;;
18114;SDS011;9184;54.390;18.620;2023-04-01T00:02:34;21.20;;;14.77;;
18114;SDS011;9184;54.390;18.620;2023-04-01T00:03:04;19.63;;;12.23;;
18114;SDS011;9184;54.390;18.620;2023-04-01T00:03:37;20.27;;;13.33;;
18114;SDS011;9184;54.390;18.620;2023-04-01T00:04:07;24.17;;;13.93;;
18114;SDS011;9184;54.390;18.620;2023-04-01T00:04:38;21.93;;;13.57;;
18114;SDS011;9184;54.390;18.620;2023-04-01T00:05:11;21.30;;;13.37;;
18114;SDS011;9184;54.390;18.620;2023-04-01T00:05:41;22.67;;;14.87;;
18114;SDS011;9184;54.390;18.620;2023-04-01T00:06:12;23.47;;;13.90;;
18114;SDS011;9184;54.390;18.620;2023-04-01T00:06:44;21.67;;;13.93;;
18114;SDS011;9184;54.390;18.620;2023-04-01T00:07:15;27.33;;;14.80;;
18114;SDS011;9184;54.390;18.620;2023-04-01T00:07:46;42.50;;;13.03;;
18114;SDS011;9184;54.390;18.620;2023-04-01T00:08:18;25.30;;;13.07;;
18114;SDS011;9184;54.390;18.620;2023-04-01T00:08:48;27.60;;;12.93;;
18114;SDS011;9184;54.390;18.620;2023-04-01T00:09:19;37.90;;;14.07;;
18114;SDS011;9184;54.390;18.620;2023-04-01T00:09:50;37.57;;;13.50;;
18114;SDS011;9184;54.390;18.620;2023-04-01T00:10:21;30.90;;;11.63;;
18114;SDS011;9184;54.390;18.620;2023-04-01T00:10:52;27.73;;;11.53;;
18114;SDS011;9184;54.390;18.620;2023-04-01T00:11:23;28.07;;;10.57;;
18114;SDS011;9184;54.390;18.620;2023-04-01T00:11:54;34.60;;;10.47;;
18114;SDS011;9184;54.390;18.620;2023-04-01T00:12:25;35.43;;;11.23;;
18114;SDS011;9184;54.390;18.620;2023-04-01T00:12:56;34.33;;;10.13;;
18114;SDS011;9184;54.390;18.620;2023-04-01T00:13:26;35.70;;;9.30;;
18114;SDS011;9184;54.390;18.620;2023-04-01T00:13:58;27.73;;;10.07;;
18114;SDS011;9184;54.390;18.620;2023-04-01T00:14:28;28.53;;;10.70;;
18114;SDS011;9184;54.390;18.620;2023-04-01T00:14:59;26.03;;;8.70;;
18114;SDS011;9184;54.390;18.620;2023-04-01T00:15:30;33.67;;;11.77;;
18114;SDS011;9184;54.390;18.620;2023-04-01T00:16:02;24.73;;;9.33;;
18114;SDS011;9184;54.390;18.620;2023-04-01T00:16:32;25.20;;;9.47;;
18114;SDS011;9184;54.390;18.620;2023-04-01T00:17:04;30.93;;;11.50;;
18114;SDS011;9184;54.390;18.620;2023-04-01T00:17:34;34.23;;;11.73;;
18114;SDS011;9184;54.390;18.620;2023-04-01T00:18:05;23.00;;;10.67;;
18114;SDS011;9184;54.390;18.620;2023-04-01T00:18:36;23.97;;;10.93;;
18114;SDS011;9184;54.390;18.620;2023-04-01T00:19:07;32.37;;;11.00;;
18114;SDS011;9184;54.390;18.620;2023-04-01T00:19:38;26.37;;;9.60;;
18114;SDS011;9184;54.390;18.620;2023-04-01T00:20:09;21.80;;;10.60;;
18114;SDS011;9184;54.390;18.620;2023-04-01T00:20:44;46.40;;;11.60;;
18114;SDS011;9184;54.390;18.620;2023-04-01T00:21:15;33.70;;;10.57;;
18114;SDS011;9184;54.390;18.620;2023-04-01T00:21:45;21.57;;;9.77;;
18114;SDS011;9184;54.390;18.620;2023-04-01T00:22:18;36.33;;;12.13;;
18114;SDS011;9184;54.390;18.620;2023-04-01T00:22:48;35.40;;;12.30;;
18114;SDS011;9184;54.390;18.620;2023-04-01T00:23:19;26.03;;;11.47;;
18114;SDS011;9184;54.390;18.620;2023-04-01T00:23:51;35.87;;;12.07;;
18114;SDS011;9184;54.390;18.620;2023-04-01T00:24:21;32.23;;;11.90;;
18114;SDS011;9184;54.390;18.620;2023-04-01T00:24:52;31.50;;;11.87;;
18114;SDS011;9184;54.390;18.620;2023-04-01T00:25:24;48.63;;;14.17;;
18114;SDS011;9184;54.390;18.620;2023-04-01T00:25:54;46.27;;;13.20;;
18114;SDS011;9184;54.390;18.620;2023-04-01T00:26:25;44.63;;;12.83;;
18114;SDS011;9184;54.390;18.620;2023-04-01T00:26:56;38.00;;;13.07;;
18114;SDS011;9184;54.390;18.620;2023-04-01T00:27:27;39.93;;;13.13;;
18114;SDS011;9184;54.390;18.620;2023-04-01T00:27:57;39.63;;;12.83;;
18114;SDS011;9184;54.390;18.620;2023-04-01T00:28:28;42.47;;;14.47;;
18114;SDS011;9184;54.390;18.620;2023-04-01T00:29:00;39.13;;;11.97;;
18114;SDS011;9184;54.390;18.620;2023-04-01T00:29:30;46.57;;;12.80;;
18114;SDS011;9184;54.390;18.620;2023-04-01T00:30:01;42.33;;;13.70;;
18114;SDS011;9184;54.390;18.620;2023-04-01T00:30:33;41.57;;;13.23;;
18114;SDS011;9184;54.390;18.620;2023-04-01T00:31:04;44.57;;;12.93;;
18114;SDS011;9184;54.390;18.620;2023-04-01T00:31:35;52.23;;;14.03;;
18114;SDS011;9184;54.390;18.620;2023-04-01T00:32:06;36.17;;;12.07;;
18114;SDS011;9184;54.390;18.620;2023-04-01T00:32:37;38.50;;;11.57;;
18114;SDS011;9184;54.390;18.620;2023-04-01T00:33:07;42.87;;;11.77;;
18114;SDS011;9184;54.390;18.620;2023-04-01T00:33:39;33.63;;;12.73;;
18114;SDS011;9184;54.390;18.620;2023-04-01T00:34:10;45.63;;;12.37;;
18114;SDS011;9184;54.390;18.620;2023-04-01T00:34:41;47.67;;;13.40;;
18114;SDS011;9184;54.390;18.620;2023-04-01T00:35:14;33.07;;;11.83;;
18114;SDS011;9184;54.390;18.620;2023-04-01T00:35:46;52.70;;;13.73;;
18114;SDS011;9184;54.390;18.620;2023-04-01T00:36:19;36.20;;;13.37;;
18114;SDS011;9184;54.390;18.620;2023-04-01T00:36:51;34.00;;;10.10;;
18114;SDS011;9184;54.390;18.620;2023-04-01T00:37:22;32.27;;;11.77;;
18114;SDS011;9184;54.390;18.620;2023-04-01T00:37:52;36.20;;;13.27;;
18114;SDS011;9184;54.390;18.620;2023-04-01T00:38:23;32.07;;;12.27;;
18114;SDS011;9184;54.390;18.620;2023-04-01T00:38:54;39.07;;;13.13;;
18114;SDS011;9184;54.390;18.620;2023-04-01T00:39:25;38.93;;;12.80;;
18114;SDS011;9184;54.390;18.620;2023-04-01T00:39:56;31.97;;;11.90;;
18114;SDS011;9184;54.390;18.620;2023-04-01T00:40:29;38.17;;;13.37;;
18114;SDS011;9184;54.390;18.620;2023-04-01T00:41:00;29.70;;;12.63;;
18114;SDS011;9184;54.390;18.620;2023-04-01T00:41:30;44.00;;;14.20;;
18114;SDS011;9184;54.390;18.620;2023-04-01T00:42:02;34.20;;;13.70;;
18114;SDS011;9184;54.390;18.620;2023-04-01T00:42:33;30.97;;;11.33;;
18114;SDS011;9184;54.390;18.620;2023-04-01T00:43:05;27.83;;;13.20;;
18114;SDS011;9184;54.390;18.620;2023-04-01T00:43:39;33.20;;;14.47;;
18114;SDS011;9184;54.390;18.620;2023-04-01T00:44:12;24.97;;;14.23;;
18114;SDS011;9184;54.390;18.620;2023-04-01T00:44:45;24.37;;;13.93;;
18114;SDS011;9184;54.390;18.620;2023-04-01T00:45:29;31.90;;;12.90;;
18114;SDS011;9184;54.390;18.620;2023-04-01T00:46:01;31.67;;;13.20;;
18114;SDS011;9184;54.390;18.620;2023-04-01T00:46:31;71.20;;;15.50;;
18114;SDS011;9184;54.390;18.620;2023-04-01T00:47:02;35.97;;;15.40;;
18114;SDS011;9184;54.390;18.620;2023-04-01T00:47:33;44.33;;;13.97;;
18114;SDS011;9184;54.390;18.620;2023-04-01T00:48:05;30.83;;;12.73;;
18114;SDS011;9184;54.390;18.620;2023-04-01T00:48:37;26.47;;;12.37;;
18114;SDS011;9184;54.390;18.620;2023-04-01T00:49:09;27.80;;;12.03;;
18114;SDS011;9184;54.390;18.620;2023-04-01T00:49:40;31.43;;;14.27;;
18114;SDS011;9184;54.390;18.620;2023-04-01T00:50:12;117.40;;;18.67;;
18114;SDS011;9184;54.390;18.620;2023-04-01T00:50:44;27.87;;;14.33;;
18114;SDS011;9184;54.390;18.620;2023-04-01T00:51:19;31.83;;;12.87;;
18114;SDS011;9184;54.390;18.620;2023-04-01T00:51:51;32.87;;;13.60;;
18114;SDS011;9184;54.390;18.620;2023-04-01T00:52:23;28.90;;;13.63;;
18114;SDS011;9184;54.390;18.620;2023-04-01T00:52:56;23.00;;;13.97;;
18114;SDS011;9184;54.390;18.620;2023-04-01T00:53:27;20.07;;;11.63;;
18114;SDS011;9184;54.390;18.620;2023-04-01T00:53:58;23.83;;;13.17;;
18114;SDS011;9184;54.390;18.620;2023-04-01T00:54:31;25.07;;;12.40;;
18114;SDS011;9184;54.390;18.620;2023-04-01T00:55:02;29.53;;;13.03;;
18114;SDS011;9184;54.390;18.620;2023-04-01T00:55:35;22.23;;;10.40;;
18114;SDS011;9184;54.390;18.620;2023-04-01T00:56:10;28.67;;;12.67;;
18114;SDS011;9184;54.390;18.620;2023-04-01T00:56:41;24.40;;;13.23;;
18114;SDS011;9184;54.390;18.620;2023-04-01T00:57:15;32.33;;;13.70;;
18114;SDS011;9184;54.390;18.620;2023-04-01T00:57:49;25.47;;;13.57;;
18114;SDS011;9184;54.390;18.620;2023-04-01T00:58:21;26.97;;;11.13;;
18114;SDS011;9184;54.390;18.620;2023-04-01T00:58:56;24.40;;;12.83;;
18114;SDS011;9184;54.390;18.620;2023-04-01T00:59:30;35.33;;;13.10;;
18114;SDS011;9184;54.390;18.620;2023-04-01T01:00:04;28.23;;;14.37;;
18114;SDS011;9184;54.390;18.620;2023-04-01T01:00:35;27.30;;;13.47;;
18114;SDS011;9184;54.390;18.620;2023-04-01T01:01:07;32.03;;;14.93;;
18114;SDS011;9184;54.390;18.620;2023-04-01T01:01:38;23.63;;;14.23;;
18114;SDS011;9184;54.390;18.620;2023-04-01T01:02:10;39.73;;;15.80;;
18114;SDS011;9184;54.390;18.620;2023-04-01T01:02:43;35.90;;;16.40;;
18114;SDS011;9184;54.390;18.620;2023-04-01T01:03:14;35.23;;;14.40;;
18114;SDS011;9184;54.390;18.620;2023-04-01T01:03:44;35.53;;;15.43;;
18114;SDS011;9184;54.390;18.620;2023-04-01T01:04:23;32.43;;;16.20;;
18114;SDS011;9184;54.390;18.620;2023-04-01T01:04:54;29.87;;;15.23;;
18114;SDS011;9184;54.390;18.620;2023-04-01T01:05:28;27.27;;;15.10;;
18114;SDS011;9184;54.390;18.620;2023-04-01T01:06:09;31.23;;;15.93;;
18114;SDS011;9184;54.390;18.620;2023-04-01T01:06:44;35.43;;;16.10;;
18114;SDS011;9184;54.390;18.620;2023-04-01T01:07:19;33.33;;;15.83;;
18114;SDS011;9184;54.390;18.620;2023-04-01T01:07:52;25.70;;;15.43;;
18114;SDS011;9184;54.390;18.620;2023-04-01T01:08:29;28.00;;;16.57;;
18114;SDS011;9184;54.390;18.620;2023-04-01T01:09:19;31.13;;;16.53;;
18114;SDS011;9184;54.390;18.620;2023-04-01T01:09:56;29.90;;;17.13;;
18114;SDS011;9184;54.390;18.620;2023-04-01T01:10:30;31.87;;;17.63;;
18114;SDS011;9184;54.390;18.620;2023-04-01T01:11:02;31.83;;;18.47;;
18114;SDS011;9184;54.390;18.620;2023-04-01T01:11:36;32.57;;;18.30;;
18114;SDS011;9184;54.390;18.620;2023-04-01T01:12:08;30.80;;;18.63;;
18114;SDS011;9184;54.390;18.620;2023-04-01T01:12:43;48.03;;;16.40;;
18114;SDS011;9184;54.390;18.620;2023-04-01T01:13:16;60.23;;;18.77;;
18114;SDS011;9184;54.390;18.620;2023-04-01T01:13:48;34.40;;;17.47;;
18114;SDS011;9184;54.390;18.620;2023-04-01T01:14:26;37.77;;;19.27;;
18114;SDS011;9184;54.390;18.620;2023-04-01T01:15:02;35.30;;;16.93;;
18114;SDS011;9184;54.390;18.620;2023-04-01T01:15:37;29.80;;;15.03;;
18114;SDS011;9184;54.390;18.620;2023-04-01T01:16:12;31.07;;;17.73;;
18114;SDS011;9184;54.390;18.620;2023-04-01T01:16:48;29.10;;;17.07;;
18114;SDS011;9184;54.390;18.620;2023-04-01T01:17:24;32.33;;;16.87;;
18114;SDS011;9184;54.390;18.620;2023-04-01T01:17:57;31.93;;;16.37;;
18114;SDS011;9184;54.390;18.620;2023-04-01T01:18:32;30.30;;;17.13;;
18114;SDS011;9184;54.390;18.620;2023-04-01T01:19:06;29.87;;;17.43;;
18114;SDS011;9184;54.390;18.620;2023-04-01T01:19:45;33.10;;;18.70;;
18114;SDS011;9184;54.390;18.620;2023-04-01T01:20:24;31.50;;;17.63;;
18114;SDS011;9184;54.390;18.620;2023-04-01T01:21:16;33.57;;;15.60;;
18114;SDS011;9184;54.390;18.620;2023-04-01T01:21:57;29.90;;;16.07;;
18114;SDS011;9184;54.390;18.620;2023-04-01T01:22:36;24.20;;;15.67;;
18114;SDS011;9184;54.390;18.620;2023-04-01T01:23:15;24.10;;;14.90;;
18114;SDS011;9184;54.390;18.620;2023-04-01T01:24:54;26.00;;;14.90;;
18114;SDS011;9184;54.390;18.620;2023-04-01T01:25:29;25.93;;;13.83;;
18114;SDS011;9184;54.390;18.620;2023-04-01T01:26:50;25.33;;;15.30;;
18114;SDS011;9184;54.390;18.620;2023-04-01T01:27:22;21.37;;;13.33;;
18114;SDS011;9184;54.390;18.620;2023-04-01T01:27:54;23.97;;;14.70;;
18114;SDS011;9184;54.390;18.620;2023-04-01T01:28:31;28.33;;;14.80;;
18114;SDS011;9184;54.390;18.620;2023-04-01T01:29:05;21.73;;;14.07;;
18114;SDS011;9184;54.390;18.620;2023-04-01T01:29:45;23.43;;;14.13;;
18114;SDS011;9184;54.390;18.620;2023-04-01T01:30:25;21.00;;;13.57;;
18114;SDS011;9184;54.390;18.620;2023-04-01T01:31:02;30.20;;;15.80;;
18114;SDS011;9184;54.390;18.620;2023-04-01T01:31:41;19.90;;;14.27;;
18114;SDS011;9184;54.390;18.620;2023-04-01T01:32:17;23.07;;;15.40;;
18114;SDS011;9184;54.390;18.620;2023-04-01T01:34:31;28.57;;;15.63;;
18114;SDS011;9184;54.390;18.620;2023-04-01T01:35:10;23.37;;;14.40;;
18114;SDS011;9184;54.390;18.620;2023-04-01T01:35:45;29.03;;;16.10;;
18114;SDS011;9184;54.390;18.620;2023-04-01T01:36:17;25.50;;;16.30;;
18114;SDS011;9184;54.390;18.620;2023-04-01T01:36:52;23.00;;;16.00;;
18114;SDS011;9184;54.390;18.620;2023-04-01T01:37:24;25.63;;;15.40;;
18114;SDS011;9184;54.390;18.620;2023-04-01T01:37:57;22.17;;;15.00;;
18114;SDS011;9184;54.390;18.620;2023-04-01T01:38:31;24.37;;;14.87;;
18114;SDS011;9184;54.390;18.620;2023-04-01T01:39:03;21.53;;;15.70;;
18114;SDS011;9184;54.390;18.620;2023-04-01T01:39:35;22.40;;;14.07;;
18114;SDS011;9184;54.390;18.620;2023-04-01T01:40:07;22.30;;;15.03;;
18114;SDS011;9184;54.390;18.620;2023-04-01T01:40:39;21.97;;;14.67;;
18114;SDS011;9184;54.390;18.620;2023-04-01T01:41:12;20.80;;;14.87;;
18114;SDS011;9184;54.390;18.620;2023-04-01T01:41:45;21.67;;;15.27;;
18114;SDS011;9184;54.390;18.620;2023-04-01T01:42:19;20.47;;;14.87;;
18114;SDS011;9184;54.390;18.620;2023-04-01T01:42:52;20.63;;;14.23;;
18114;SDS011;9184;54.390;18.620;2023-04-01T01:43:26;24.80;;;15.03;;
18114;SDS011;9184;54.390;18.620;2023-04-01T01:43:57;19.87;;;14.67;;
18114;SDS011;9184;54.390;18.620;2023-04-01T01:44:31;18.77;;;14.13;;
18114;SDS011;9184;54.390;18.620;2023-04-01T01:45:02;20.13;;;13.57;;
18114;SDS011;9184;54.390;18.620;2023-04-01T01:45:40;17.67;;;13.63;;
18114;SDS011;9184;54.390;18.620;2023-04-01T01:46:14;19.97;;;13.07;;
18114;SDS011;9184;54.390;18.620;2023-04-01T01:46:46;21.87;;;11.47;;
18114;SDS011;9184;54.390;18.620;2023-04-01T01:47:17;21.90;;;13.37;;
18114;SDS011;9184;54.390;18.620;2023-04-01T01:47:50;17.57;;;12.53;;
18114;SDS011;9184;54.390;18.620;2023-04-01T01:48:21;18.90;;;13.60;;
18114;SDS011;9184;54.390;18.620;2023-04-01T01:48:53;41.20;;;14.13;;
18114;SDS011;9184;54.390;18.620;2023-04-01T01:49:25;20.87;;;13.83;;
18114;SDS011;9184;54.390;18.620;2023-04-01T01:49:57;75.67;;;17.30;;
18114;SDS011;9184;54.390;18.620;2023-04-01T01:50:29;19.20;;;13.37;;
18114;SDS011;9184;54.390;18.620;2023-04-01T01:51:00;21.70;;;13.17;;
18114;SDS011;9184;54.390;18.620;2023-04-01T01:51:32;19.30;;;12.60;;
18114;SDS011;9184;54.390;18.620;2023-04-01T01:52:02;18.27;;;12.73;;
18114;SDS011;9184;54.390;18.620;2023-04-01T01:52:33;17.40;;;13.37;;
18114;SDS011;9184;54.390;18.620;2023-04-01T01:53:05;16.67;;;13.60;;
18114;SDS011;9184;54.390;18.620;2023-04-01T01:53:37;18.67;;;12.53;;
18114;SDS011;9184;54.390;18.620;2023-04-01T01:54:11;17.83;;;12.67;;
18114;SDS011;9184;54.390;18.620;2023-04-01T01:54:46;21.77;;;13.27;;
18114;SDS011;9184;54.390;18.620;2023-04-01T01:55:25;28.17;;;12.83;;
18114;SDS011;9184;54.390;18.620;2023-04-01T01:55:56;20.50;;;11.17;;
18114;SDS011;9184;54.390;18.620;2023-04-01T01:56:28;16.37;;;12.03;;
18114;SDS011;9184;54.390;18.620;2023-04-01T01:57:01;20.13;;;11.93;;
18114;SDS011;9184;54.390;18.620;2023-04-01T01:57:34;14.37;;;10.87;;
18114;SDS011;9184;54.390;18.620;2023-04-01T01:58:09;18.10;;;12.50;;
18114;SDS011;9184;54.390;18.620;2023-04-01T01:58:42;15.53;;;11.50;;
18114;SDS011;9184;54.390;18.620;2023-04-01T01:59:14;17.50;;;11.10;;
18114;SDS011;9184;54.390;18.620;2023-04-01T01:59:46;14.60;;;11.57;;
18114;SDS011;9184;54.390;18.620;2023-04-01T02:00:17;16.10;;;12.10;;
18114;SDS011;9184;54.390;18.620;2023-04-01T02:00:50;16.87;;;12.80;;
18114;SDS011;9184;54.390;18.620;2023-04-01T02:01:25;15.00;;;11.10;;
18114;SDS011;9184;54.390;18.620;2023-04-01T02:01:56;13.43;;;10.60;;
18114;SDS011;9184;54.390;18.620;2023-04-01T02:02:28;17.67;;;10.87;;
18114;SDS011;9184;54.390;18.620;2023-04-01T02:03:02;15.30;;;11.47;;
18114;SDS011;9184;54.390;18.620;2023-04-01T02:03:34;15.83;;;12.37;;
18114;SDS011;9184;54.390;18.620;2023-04-01T02:04:05;15.17;;;11.97;;
18114;SDS011;9184;54.390;18.620;2023-04-01T02:04:38;17.47;;;11.80;;
18114;SDS011;9184;54.390;18.620;2023-04-01T02:05:09;18.50;;;11.57;;
18114;SDS011;9184;54.390;18.620;2023-04-01T02:05:42;12.70;;;10.90;;
18114;SDS011;9184;54.390;18.620;2023-04-01T02:06:15;18.90;;;10.70;;
18114;SDS011;9184;54.390;18.620;2023-04-01T02:06:47;16.80;;;10.97;;
18114;SDS011;9184;54.390;18.620;2023-04-01T02:07:20;137.97;;;17.80;;
18114;SDS011;9184;54.390;18.620;2023-04-01T02:07:54;13.77;;;10.23;;
18114;SDS011;9184;54.390;18.620;2023-04-01T02:08:28;12.87;;;11.13;;
18114;SDS011;9184;54.390;18.620;2023-04-01T02:09:01;14.73;;;10.33;;
18114;SDS011;9184;54.390;18.620;2023-04-01T02:09:33;23.03;;;11.33;;
18114;SDS011;9184;54.390;18.620;2023-04-01T02:10:06;12.07;;;9.97;;
18114;SDS011;9184;54.390;18.620;2023-04-01T02:10:37;15.53;;;10.57;;
18114;SDS011;9184;54.390;18.620;2023-04-01T02:11:10;14.13;;;11.17;;
18114;SDS011;9184;54.390;18.620;2023-04-01T02:11:44;12.50;;;10.13;;
18114;SDS011;9184;54.390;18.620;2023-04-01T02:12:16;12.43;;;8.80;;
18114;SDS011;9184;54.390;18.620;2023-04-01T02:12:47;12.63;;;10.10;;
18114;SDS011;9184;54.390;18.620;2023-04-01T02:13:21;15.97;;;9.77;;
18114;SDS011;9184;54.390;18.620;2023-04-01T02:13:54;13.70;;;10.07;;
18114;SDS011;9184;54.390;18.620;2023-04-01T02:14:28;11.30;;;9.70;;
18114;SDS011;9184;54.390;18.620;2023-04-01T02:15:04;13.67;;;9.43;;
18114;SDS011;9184;54.390;18.620;2023-04-01T02:15:37;12.97;;;9.60;;
18114;SDS011;9184;54.390;18.620;2023-04-01T02:16:11;25.50;;;10.30;;
18114;SDS011;9184;54.390;18.620;2023-04-01T02:16:44;11.77;;;9.50;;
18114;SDS011;9184;54.390;18.620;2023-04-01T02:17:17;13.33;;;10.27;;
18114;SDS011;9184;54.390;18.620;2023-04-01T02:17:49;15.33;;;10.20;;
18114;SDS011;9184;54.390;18.620;2023-04-01T02:18:21;14.33;;;9.63;;
18114;SDS011;9184;54.390;18.620;2023-04-01T02:18:52;13.33;;;9.67;;
18114;SDS011;9184;54.390;18.620;2023-04-01T02:19:27;14.77;;;9.57;;
18114;SDS011;9184;54.390;18.620;2023-04-01T02:19:59;12.00;;;9.43;;
18114;SDS011;9184;54.390;18.620;2023-04-01T02:20:31;12.60;;;8.87;;
18114;SDS011;9184;54.390;18.620;2023-04-01T02:21:04;12.70;;;9.73;;
18114;SDS011;9184;54.390;18.620;2023-04-01T02:21:36;12.47;;;10.00;;
18114;SDS011;9184;54.390;18.620;2023-04-01T02:22:08;16.40;;;10.93;;
18114;SDS011;9184;54.390;18.620;2023-04-01T02:22:42;15.17;;;10.00;;
18114;SDS011;9184;54.390;18.620;2023-04-01T02:23:14;13.70;;;10.13;;
18114;SDS011;9184;54.390;18.620;2023-04-01T02:23:45;12.97;;;9.73;;
18114;SDS011;9184;54.390;18.620;2023-04-01T02:24:17;13.63;;;9.73;;
18114;SDS011;9184;54.390;18.620;2023-04-01T02:24:52;15.03;;;8.90;;
18114;SDS011;9184;54.390;18.620;2023-04-01T02:25:24;15.83;;;10.43;;
18114;SDS011;9184;54.390;18.620;2023-04-01T02:25:55;17.23;;;10.07;;
18114;SDS011;9184;54.390;18.620;2023-04-01T02:26:26;13.97;;;9.80;;
18114;SDS011;9184;54.390;18.620;2023-04-01T02:26:58;13.00;;;9.57;;
18114;SDS011;9184;54.390;18.620;2023-04-01T02:27:28;13.37;;;9.67;;
18114;SDS011;9184;54.390;18.620;2023-04-01T02:28:00;11.43;;;9.77;;
18114;SDS011;9184;54.390;18.620;2023-04-01T02:28:32;15.67;;;9.80;;
18114;SDS011;9184;54.390;18.620;2023-04-01T02:29:03;14.03;;;9.87;;
18114;SDS011;9184;54.390;18.620;2023-04-01T02:29:35;16.40;;;10.63;;
18114;SDS011;9184;54.390;18.620;2023-04-01T02:30:07;40.03;;;11.60;;
18114;SDS011;9184;54.390;18.620;2023-04-01T02:30:38;22.70;;;11.03;;
18114;SDS011;9184;54.390;18.620;2023-04-01T02:31:10;15.43;;;10.10;;
18114;SDS011;9184;54.390;18.620;2023-04-01T02:31:42;13.53;;;10.00;;
18114;SDS011;9184;54.390;18.620;2023-04-01T02:32:12;13.63;;;10.17;;
18114;SDS011;9184;54.390;18.620;2023-04-01T02:32:43;16.90;;;10.27;;
18114;SDS011;9184;54.390;18.620;2023-04-01T02:33:14;14.20;;;9.73;;
18114;SDS011;9184;54.390;18.620;2023-04-01T02:33:46;15.13;;;9.97;;
18114;SDS011;9184;54.390;18.620;2023-04-01T02:34:17;13.70;;;10.03;;
18114;SDS011;9184;54.390;18.620;2023-04-01T02:34:48;14.47;;;10.37;;
18114;SDS011;9184;54.390;18.620;2023-04-01T02:35:20;13.87;;;10.03;;
18114;SDS011;9184;54.390;18.620;2023-04-01T02:35:50;19.00;;;10.87;;
18114;SDS011;9184;54.390;18.620;2023-04-01T02:36:22;14.23;;;10.67;;
18114;SDS011;9184;54.390;18.620;2023-04-01T02:36:54;63.37;;;12.97;;
18114;SDS011;9184;54.390;18.620;2023-04-01T02:37:25;14.53;;;11.87;;
18114;SDS011;9184;54.390;18.620;2023-04-01T02:37:56;14.07;;;10.90;;
18114;SDS011;9184;54.390;18.620;2023-04-01T02:38:26;18.53;;;11.73;;
18114;SDS011;9184;54.390;18.620;2023-04-01T02:38:58;18.53;;;12.40;;
18114;SDS011;9184;54.390;18.620;2023-04-01T02:39:32;18.13;;;11.90;;
18114;SDS011;9184;54.390;18.620;2023-04-01T02:40:03;112.93;;;16.10;;
18114;SDS011;9184;54.390;18.620;2023-04-01T02:40:46;12.50;;;10.20;;
18114;SDS011;9184;54.390;18.620;2023-04-01T02:41:17;12.87;;;9.93;;
18114;SDS011;9184;54.390;18.620;2023-04-01T02:41:47;14.37;;;10.33;;
18114;SDS011;9184;54.390;18.620;2023-04-01T02:42:19;15.33;;;10.00;;
18114;SDS011;9184;54.390;18.620;2023-04-01T02:42:50;13.47;;;9.97;;
18114;SDS011;9184;54.390;18.620;2023-04-01T02:43:20;16.17;;;10.93;;
18114;SDS011;9184;54.390;18.620;2023-04-01T02:43:52;15.50;;;10.43;;
18114;SDS011;9184;54.390;18.620;2023-04-01T02:44:23;14.47;;;11.00;;
18114;SDS011;9184;54.390;18.620;2023-04-01T02:44:53;25.47;;;11.60;;
18114;SDS011;9184;54.390;18.620;2023-04-01T02:45:24;13.27;;;10.30;;
18114;SDS011;9184;54.390;18.620;2023-04-01T02:45:55;17.43;;;10.73;;
18114;SDS011;9184;54.390;18.620;2023-04-01T02:46:26;12.20;;;10.17;;
18114;SDS011;9184;54.390;18.620;2023-04-01T02:46:57;29.67;;;11.50;;
18114;SDS011;9184;54.390;18.620;2023-04-01T02:47:28;19.13;;;10.57;;
18114;SDS011;9184;54.390;18.620;2023-04-01T02:47:59;22.80;;;11.23;;
18114;SDS011;9184;54.390;18.620;2023-04-01T02:48:30;14.63;;;10.83;;
18114;SDS011;9184;54.390;18.620;2023-04-01T02:49:01;12.67;;;9.87;;
18114;SDS011;9184;54.390;18.620;2023-04-01T02:49:31;13.47;;;9.87;;
18114;SDS011;9184;54.390;18.620;2023-04-01T02:50:03;18.50;;;10.60;;
18114;SDS011;9184;54.390;18.620;2023-04-01T02:50:33;17.27;;;11.47;;
18114;SDS011;9184;54.390;18.620;2023-04-01T02:51:04;14.73;;;10.27;;
18114;SDS011;9184;54.390;18.620;2023-04-01T02:51:36;14.80;;;10.37;;
18114;SDS011;9184;54.390;18.620;2023-04-01T02:52:08;14.50;;;11.37;;
18114;SDS011;9184;54.390;18.620;2023-04-01T02:52:38;14.80;;;11.03;;
18114;SDS011;9184;54.390;18.620;2023-04-01T02:53:09;14.90;;;10.03;;
18114;SDS011;9184;54.390;18.620;2023-04-01T02:53:41;19.57;;;11.50;;
18114;SDS011;9184;54.390;18.620;2023-04-01T02:54:11;18.53;;;11.00;;
18114;SDS011;9184;54.390;18.620;2023-04-01T02:54:42;16.63;;;11.00;;
18114;SDS011;9184;54.390;18.620;2023-04-01T02:55:13;16.77;;;10.67;;
18114;SDS011;9184;54.390;18.620;2023-04-01T02:55:44;15.53;;;10.80;;
18114;SDS011;9184;54.390;18.620;2023-04-01T02:56:15;13.20;;;9.50;;
18114;SDS011;9184;54.390;18.620;2023-04-01T02:56:47;18.73;;;11.47;;
18114;SDS011;9184;54.390;18.620;2023-04-01T02:57:17;17.63;;;11.93;;
18114;SDS011;9184;54.390;18.620;2023-04-01T02:57:48;17.20;;;10.87;;
18114;SDS011;9184;54.390;18.620;2023-04-01T02:58:19;15.00;;;9.60;;
18114;SDS011;9184;54.390;18.620;2023-04-01T02:58:50;15.27;;;10.20;;
18114;SDS011;9184;54.390;18.620;2023-04-01T02:59:20;12.43;;;10.47;;
18114;SDS011;9184;54.390;18.620;2023-04-01T02:59:51;13.87;;;10.67;;
18114;SDS011;9184;54.390;18.620;2023-04-01T03:00:22;13.40;;;10.40;;
18114;SDS011;9184;54.390;18.620;2023-04-01T03:00:53;19.67;;;10.63;;
18114;SDS011;9184;54.390;18.620;2023-04-01T03:01:23;13.07;;;10.40;;
18114;SDS011;9184;54.390;18.620;2023-04-01T03:01:55;17.53;;;9.97;;
18114;SDS011;9184;54.390;18.620;2023-04-01T03:02:25;15.70;;;10.67;;
18114;SDS011;9184;54.390;18.620;2023-04-01T03:02:56;17.40;;;9.97;;
18114;SDS011;9184;54.390;18.620;2023-04-01T03:03:28;15.43;;;10.60;;
18114;SDS011;9184;54.390;18.620;2023-04-01T03:03:59;18.00;;;10.53;;
18114;SDS011;9184;54.390;18.620;2023-04-01T03:04:29;15.47;;;10.40;;
18114;SDS011;9184;54.390;18.620;2023-04-01T03:05:01;18.53;;;10.53;;
18114;SDS011;9184;54.390;18.620;2023-04-01T03:05:31;16.97;;;10.57;;
18114;SDS011;9184;54.390;18.620;2023-04-01T03:06:04;14.87;;;10.87;;
18114;SDS011;9184;54.390;18.620;2023-04-01T03:06:37;12.67;;;9.53;;
18114;SDS011;9184;54.390;18.620;2023-04-01T03:07:08;13.80;;;10.27;;
18114;SDS011;9184;54.390;18.620;2023-04-01T03:07:39;13.53;;;9.43;;
18114;SDS011;9184;54.390;18.620;2023-04-01T03:08:11;30.07;;;11.90;;
18114;SDS011;9184;54.390;18.620;2023-04-01T03:08:42;14.60;;;10.93;;
18114;SDS011;9184;54.390;18.620;2023-04-01T03:09:13;13.63;;;10.30;;
18114;SDS011;9184;54.390;18.620;2023-04-01T03:09:46;18.30;;;12.70;;
18114;SDS011;9184;54.390;18.620;2023-04-01T03:10:16;14.43;;;10.60;;
18114;SDS011;9184;54.390;18.620;2023-04-01T03:10:47;15.67;;;11.23;;
18114;SDS011;9184;54.390;18.620;2023-04-01T03:11:18;42.03;;;12.80;;
18114;SDS011;9184;54.390;18.620;2023-04-01T03:11:49;15.17;;;10.30;;
18114;SDS011;9184;54.390;18.620;2023-04-01T03:12:20;18.37;;;13.50;;
18114;SDS011;9184;54.390;18.620;2023-04-01T03:12:51;14.87;;;10.40;;
18114;SDS011;9184;54.390;18.620;2023-04-01T03:13:22;13.33;;;10.30;;
18114;SDS011;9184;54.390;18.620;2023-04-01T03:13:52;12.57;;;9.70;;